sensor_id;sensor_type;location;lat;lon;timestamp;P1;durP1;ratioP1;P2;durP2;ratioP2
49972;SDS011;65693;49.798;10.968;2023-02-21T00:00:28;5.50;;;2.42;;
49972;SDS011;65693;49.798;10.968;2023-02-21T00:03:13;4.90;;;2.67;;
49972;SDS011;65693;49.798;10.968;2023-02-21T00:05:57;5.65;;;2.90;;
49972;SDS011;65693;49.798;10.968;2023-02-21T00:08:41;5.53;;;3.38;;
49972;SDS011;65693;49.798;10.968;2023-02-21T00:11:26;4.38;;;2.80;;
49972;SDS011;65693;49.798;10.968;2023-02-21T00:14:10;4.32;;;2.38;;
49972;SDS011;65693;49.798;10.968;2023-02-21T00:16:54;4.55;;;2.90;;
49972;SDS011;65693;49.798;10.968;2023-02-21T00:19:40;4.32;;;2.53;;
49972;SDS011;65693;49.798;10.968;2023-02-21T00:22:24;4.72;;;2.50;;
49972;SDS011;65693;49.798;10.968;2023-02-21T00:25:08;5.03;;;2.70;;
49972;SDS011;65693;49.798;10.968;2023-02-21T00:27:52;4.18;;;2.72;;
49972;SDS011;65693;49.798;10.968;2023-02-21T00:30:36;4.35;;;2.70;;
49972;SDS011;65693;49.798;10.968;2023-02-21T00:33:20;5.43;;;2.65;;
49972;SDS011;65693;49.798;10.968;2023-02-21T00:36:06;5.40;;;2.72;;
49972;SDS011;65693;49.798;10.968;2023-02-21T00:38:50;4.47;;;2.65;;
49972;SDS011;65693;49.798;10.968;2023-02-21T00:41:34;4.63;;;2.60;;
49972;SDS011;65693;49.798;10.968;2023-02-21T00:44:18;4.72;;;2.45;;
49972;SDS011;65693;49.798;10.968;2023-02-21T00:47:02;4.38;;;2.90;;
49972;SDS011;65693;49.798;10.968;2023-02-21T00:49:46;6.45;;;2.72;;
49972;SDS011;65693;49.798;10.968;2023-02-21T00:52:32;4.05;;;2.33;;
49972;SDS011;65693;49.798;10.968;2023-02-21T00:55:16;4.93;;;2.70;;
49972;SDS011;65693;49.798;10.968;2023-02-21T00:58:00;4.55;;;2.63;;
49972;SDS011;65693;49.798;10.968;2023-02-21T01:00:44;4.50;;;3.13;;
49972;SDS011;65693;49.798;10.968;2023-02-21T01:03:28;4.75;;;2.65;;
49972;SDS011;65693;49.798;10.968;2023-02-21T01:06:12;4.60;;;2.67;;
49972;SDS011;65693;49.798;10.968;2023-02-21T01:08:57;4.50;;;2.53;;
49972;SDS011;65693;49.798;10.968;2023-02-21T01:11:41;4.68;;;2.70;;
49972;SDS011;65693;49.798;10.968;2023-02-21T01:14:26;4.53;;;2.63;;
49972;SDS011;65693;49.798;10.968;2023-02-21T01:17:10;5.55;;;2.53;;
49972;SDS011;65693;49.798;10.968;2023-02-21T01:19:54;5.43;;;2.80;;
49972;SDS011;65693;49.798;10.968;2023-02-21T01:22:38;4.22;;;2.83;;
49972;SDS011;65693;49.798;10.968;2023-02-21T01:25:24;4.38;;;2.50;;
49972;SDS011;65693;49.798;10.968;2023-02-21T01:28:08;3.97;;;2.42;;
49972;SDS011;65693;49.798;10.968;2023-02-21T01:30:52;4.00;;;2.55;;
49972;SDS011;65693;49.798;10.968;2023-02-21T01:33:37;4.45;;;2.63;;
49972;SDS011;65693;49.798;10.968;2023-02-21T01:36:22;5.07;;;2.50;;
49972;SDS011;65693;49.798;10.968;2023-02-21T01:39:06;4.47;;;2.88;;
49972;SDS011;65693;49.798;10.968;2023-02-21T01:41:51;4.90;;;2.60;;
49972;SDS011;65693;49.798;10.968;2023-02-21T01:44:36;4.70;;;2.55;;
49972;SDS011;65693;49.798;10.968;2023-02-21T01:47:22;6.40;;;2.95;;
49972;SDS011;65693;49.798;10.968;2023-02-21T01:50:10;5.40;;;2.85;;
49972;SDS011;65693;49.798;10.968;2023-02-21T01:52:59;4.43;;;2.50;;
49972;SDS011;65693;49.798;10.968;2023-02-21T01:55:45;5.45;;;2.80;;
49972;SDS011;65693;49.798;10.968;2023-02-21T01:58:30;3.92;;;2.58;;
49972;SDS011;65693;49.798;10.968;2023-02-21T02:01:18;5.25;;;2.83;;
49972;SDS011;65693;49.798;10.968;2023-02-21T02:04:08;4.95;;;2.70;;
49972;SDS011;65693;49.798;10.968;2023-02-21T02:06:52;5.25;;;2.60;;
49972;SDS011;65693;49.798;10.968;2023-02-21T02:09:36;5.00;;;2.70;;
49972;SDS011;65693;49.798;10.968;2023-02-21T02:12:32;4.63;;;2.67;;
49972;SDS011;65693;49.798;10.968;2023-02-21T02:15:14;4.75;;;2.47;;
49972;SDS011;65693;49.798;10.968;2023-02-21T02:17:57;4.30;;;2.67;;
49972;SDS011;65693;49.798;10.968;2023-02-21T02:20:46;4.50;;;2.63;;
49972;SDS011;65693;49.798;10.968;2023-02-21T02:23:33;3.97;;;2.30;;
49972;SDS011;65693;49.798;10.968;2023-02-21T02:26:24;4.57;;;2.47;;
49972;SDS011;65693;49.798;10.968;2023-02-21T02:29:09;5.00;;;2.40;;
49972;SDS011;65693;49.798;10.968;2023-02-21T02:31:57;4.32;;;2.67;;
49972;SDS011;65693;49.798;10.968;2023-02-21T02:37:29;4.32;;;2.67;;
49972;SDS011;65693;49.798;10.968;2023-02-21T02:40:00;6.03;;;3.08;;
49972;SDS011;65693;49.798;10.968;2023-02-21T02:42:37;5.22;;;2.30;;
49972;SDS011;65693;49.798;10.968;2023-02-21T02:45:13;4.38;;;2.53;;
49972;SDS011;65693;49.798;10.968;2023-02-21T02:47:45;3.95;;;2.58;;
49972;SDS011;65693;49.798;10.968;2023-02-21T02:50:17;4.45;;;2.60;;
49972;SDS011;65693;49.798;10.968;2023-02-21T02:52:49;3.60;;;2.38;;
49972;SDS011;65693;49.798;10.968;2023-02-21T02:55:22;3.85;;;2.35;;
49972;SDS011;65693;49.798;10.968;2023-02-21T02:57:55;3.97;;;2.28;;
49972;SDS011;65693;49.798;10.968;2023-02-21T03:00:22;4.32;;;2.22;;
49972;SDS011;65693;49.798;10.968;2023-02-21T03:02:52;3.60;;;2.10;;
49972;SDS011;65693;49.798;10.968;2023-02-21T03:05:33;4.30;;;2.30;;
49972;SDS011;65693;49.798;10.968;2023-02-21T03:08:12;4.50;;;2.80;;
49972;SDS011;65693;49.798;10.968;2023-02-21T03:10:47;3.53;;;2.03;;
49972;SDS011;65693;49.798;10.968;2023-02-21T03:13:23;4.10;;;2.33;;
49972;SDS011;65693;49.798;10.968;2023-02-21T03:16:03;4.75;;;2.50;;
49972;SDS011;65693;49.798;10.968;2023-02-21T03:18:35;5.47;;;3.00;;
49972;SDS011;65693;49.798;10.968;2023-02-21T03:21:09;4.90;;;2.83;;
49972;SDS011;65693;49.798;10.968;2023-02-21T03:23:38;4.63;;;2.50;;
49972;SDS011;65693;49.798;10.968;2023-02-21T03:26:09;5.15;;;2.78;;
49972;SDS011;65693;49.798;10.968;2023-02-21T03:28:39;4.22;;;2.72;;
49972;SDS011;65693;49.798;10.968;2023-02-21T03:31:06;4.65;;;2.30;;
49972;SDS011;65693;49.798;10.968;2023-02-21T03:33:36;3.90;;;2.35;;
49972;SDS011;65693;49.798;10.968;2023-02-21T03:36:03;4.35;;;2.70;;
49972;SDS011;65693;49.798;10.968;2023-02-21T03:38:32;4.57;;;2.30;;
49972;SDS011;65693;49.798;10.968;2023-02-21T03:40:59;4.93;;;2.83;;
49972;SDS011;65693;49.798;10.968;2023-02-21T03:43:25;4.10;;;2.42;;
49972;SDS011;65693;49.798;10.968;2023-02-21T03:45:52;4.75;;;2.50;;
49972;SDS011;65693;49.798;10.968;2023-02-21T03:48:18;5.35;;;2.72;;
49972;SDS011;65693;49.798;10.968;2023-02-21T03:50:45;4.20;;;2.67;;
49972;SDS011;65693;49.798;10.968;2023-02-21T03:53:11;4.40;;;2.50;;
49972;SDS011;65693;49.798;10.968;2023-02-21T03:55:39;4.90;;;2.70;;
49972;SDS011;65693;49.798;10.968;2023-02-21T03:58:05;4.15;;;2.15;;
49972;SDS011;65693;49.798;10.968;2023-02-21T04:00:32;5.03;;;2.67;;
49972;SDS011;65693;49.798;10.968;2023-02-21T04:02:58;4.63;;;2.53;;
49972;SDS011;65693;49.798;10.968;2023-02-21T04:05:24;3.92;;;2.30;;
49972;SDS011;65693;49.798;10.968;2023-02-21T04:07:51;4.50;;;2.42;;
49972;SDS011;65693;49.798;10.968;2023-02-21T04:10:17;5.82;;;2.75;;
49972;SDS011;65693;49.798;10.968;2023-02-21T04:12:45;4.22;;;2.47;;
49972;SDS011;65693;49.798;10.968;2023-02-21T04:15:11;4.35;;;2.70;;
49972;SDS011;65693;49.798;10.968;2023-02-21T04:17:38;4.60;;;2.53;;
49972;SDS011;65693;49.798;10.968;2023-02-21T04:20:04;4.90;;;2.90;;
49972;SDS011;65693;49.798;10.968;2023-02-21T04:22:31;4.18;;;2.40;;
49972;SDS011;65693;49.798;10.968;2023-02-21T04:24:58;4.20;;;2.60;;
49972;SDS011;65693;49.798;10.968;2023-02-21T04:27:24;4.88;;;2.60;;
49972;SDS011;65693;49.798;10.968;2023-02-21T04:29:52;4.18;;;2.30;;
49972;SDS011;65693;49.798;10.968;2023-02-21T04:32:19;5.18;;;2.38;;
49972;SDS011;65693;49.798;10.968;2023-02-21T04:34:45;4.50;;;2.67;;
49972;SDS011;65693;49.798;10.968;2023-02-21T04:37:11;4.68;;;2.47;;
49972;SDS011;65693;49.798;10.968;2023-02-21T04:39:39;3.60;;;2.40;;
49972;SDS011;65693;49.798;10.968;2023-02-21T04:42:05;4.20;;;2.53;;
49972;SDS011;65693;49.798;10.968;2023-02-21T04:44:33;4.53;;;2.50;;
49972;SDS011;65693;49.798;10.968;2023-02-21T04:47:01;4.00;;;2.40;;
49972;SDS011;65693;49.798;10.968;2023-02-21T04:49:27;3.45;;;2.40;;
49972;SDS011;65693;49.798;10.968;2023-02-21T04:51:54;5.25;;;2.40;;
49972;SDS011;65693;49.798;10.968;2023-02-21T04:54:20;4.95;;;2.50;;
49972;SDS011;65693;49.798;10.968;2023-02-21T04:56:47;4.65;;;2.22;;
49972;SDS011;65693;49.798;10.968;2023-02-21T04:59:13;4.72;;;2.50;;
49972;SDS011;65693;49.798;10.968;2023-02-21T05:01:40;5.18;;;3.28;;
49972;SDS011;65693;49.798;10.968;2023-02-21T05:04:07;5.13;;;2.85;;
49972;SDS011;65693;49.798;10.968;2023-02-21T05:06:34;4.57;;;2.28;;
49972;SDS011;65693;49.798;10.968;2023-02-21T05:09:00;4.55;;;2.75;;
49972;SDS011;65693;49.798;10.968;2023-02-21T05:11:26;4.75;;;2.85;;
49972;SDS011;65693;49.798;10.968;2023-02-21T05:13:53;5.65;;;2.97;;
49972;SDS011;65693;49.798;10.968;2023-02-21T05:16:19;4.30;;;2.53;;
49972;SDS011;65693;49.798;10.968;2023-02-21T05:18:47;5.15;;;2.70;;
49972;SDS011;65693;49.798;10.968;2023-02-21T05:21:16;3.92;;;2.58;;
49972;SDS011;65693;49.798;10.968;2023-02-21T05:23:44;4.45;;;2.80;;
49972;SDS011;65693;49.798;10.968;2023-02-21T05:26:20;4.50;;;2.50;;
49972;SDS011;65693;49.798;10.968;2023-02-21T05:28:47;4.28;;;2.83;;
49972;SDS011;65693;49.798;10.968;2023-02-21T05:31:14;4.50;;;2.50;;
49972;SDS011;65693;49.798;10.968;2023-02-21T05:33:40;3.30;;;2.28;;
49972;SDS011;65693;49.798;10.968;2023-02-21T05:36:06;4.85;;;2.83;;
49972;SDS011;65693;49.798;10.968;2023-02-21T05:38:36;4.72;;;2.65;;
49972;SDS011;65693;49.798;10.968;2023-02-21T05:41:09;5.15;;;2.83;;
49972;SDS011;65693;49.798;10.968;2023-02-21T05:43:35;4.68;;;2.60;;
49972;SDS011;65693;49.798;10.968;2023-02-21T05:46:02;4.55;;;2.80;;
49972;SDS011;65693;49.798;10.968;2023-02-21T05:48:28;4.75;;;2.70;;
49972;SDS011;65693;49.798;10.968;2023-02-21T05:50:55;4.05;;;2.53;;
49972;SDS011;65693;49.798;10.968;2023-02-21T05:53:21;4.05;;;2.40;;
49972;SDS011;65693;49.798;10.968;2023-02-21T05:55:49;4.13;;;2.78;;
49972;SDS011;65693;49.798;10.968;2023-02-21T05:58:15;4.35;;;2.60;;
49972;SDS011;65693;49.798;10.968;2023-02-21T06:00:41;4.80;;;2.95;;
49972;SDS011;65693;49.798;10.968;2023-02-21T06:03:08;4.10;;;2.38;;
49972;SDS011;65693;49.798;10.968;2023-02-21T06:05:34;5.28;;;2.85;;
49972;SDS011;65693;49.798;10.968;2023-02-21T06:08:01;4.45;;;2.53;;
49972;SDS011;65693;49.798;10.968;2023-02-21T06:10:27;4.53;;;2.58;;
49972;SDS011;65693;49.798;10.968;2023-02-21T06:12:55;4.45;;;2.80;;
49972;SDS011;65693;49.798;10.968;2023-02-21T06:15:21;4.18;;;2.63;;
49972;SDS011;65693;49.798;10.968;2023-02-21T06:17:48;4.50;;;2.90;;
49972;SDS011;65693;49.798;10.968;2023-02-21T06:20:14;4.85;;;2.55;;
49972;SDS011;65693;49.798;10.968;2023-02-21T06:22:41;5.30;;;2.75;;
49972;SDS011;65693;49.798;10.968;2023-02-21T06:25:08;4.55;;;2.47;;
49972;SDS011;65693;49.798;10.968;2023-02-21T06:27:35;4.70;;;2.63;;
49972;SDS011;65693;49.798;10.968;2023-02-21T06:30:03;4.32;;;2.55;;
49972;SDS011;65693;49.798;10.968;2023-02-21T06:32:31;4.25;;;2.67;;
49972;SDS011;65693;49.798;10.968;2023-02-21T06:34:58;4.18;;;2.88;;
49972;SDS011;65693;49.798;10.968;2023-02-21T06:37:24;4.22;;;2.55;;
49972;SDS011;65693;49.798;10.968;2023-02-21T06:39:51;4.53;;;2.63;;
49972;SDS011;65693;49.798;10.968;2023-02-21T06:42:17;5.07;;;2.28;;
49972;SDS011;65693;49.798;10.968;2023-02-21T06:44:44;3.92;;;2.25;;
49972;SDS011;65693;49.798;10.968;2023-02-21T06:47:13;5.72;;;2.65;;
49972;SDS011;65693;49.798;10.968;2023-02-21T06:49:39;5.28;;;3.05;;
49972;SDS011;65693;49.798;10.968;2023-02-21T06:52:06;4.30;;;2.65;;
49972;SDS011;65693;49.798;10.968;2023-02-21T06:54:33;5.18;;;3.13;;
49972;SDS011;65693;49.798;10.968;2023-02-21T06:57:00;4.18;;;2.85;;
49972;SDS011;65693;49.798;10.968;2023-02-21T06:59:27;6.53;;;3.30;;
49972;SDS011;65693;49.798;10.968;2023-02-21T07:01:53;5.55;;;3.10;;
49972;SDS011;65693;49.798;10.968;2023-02-21T07:04:21;4.47;;;2.95;;
49972;SDS011;65693;49.798;10.968;2023-02-21T07:06:48;4.85;;;2.97;;
49972;SDS011;65693;49.798;10.968;2023-02-21T07:09:15;5.47;;;3.13;;
49972;SDS011;65693;49.798;10.968;2023-02-21T07:11:41;5.05;;;3.13;;
49972;SDS011;65693;49.798;10.968;2023-02-21T07:14:09;5.50;;;3.15;;
49972;SDS011;65693;49.798;10.968;2023-02-21T07:16:35;4.75;;;2.78;;
49972;SDS011;65693;49.798;10.968;2023-02-21T07:19:02;4.60;;;2.65;;
49972;SDS011;65693;49.798;10.968;2023-02-21T07:21:29;5.10;;;3.13;;
49972;SDS011;65693;49.798;10.968;2023-02-21T07:23:56;4.55;;;2.40;;
49972;SDS011;65693;49.798;10.968;2023-02-21T07:26:22;4.88;;;2.88;;
49972;SDS011;65693;49.798;10.968;2023-02-21T07:28:49;6.28;;;2.55;;
49972;SDS011;65693;49.798;10.968;2023-02-21T07:31:15;5.13;;;2.90;;
49972;SDS011;65693;49.798;10.968;2023-02-21T07:33:43;5.65;;;3.17;;
49972;SDS011;65693;49.798;10.968;2023-02-21T07:36:10;5.20;;;2.88;;
49972;SDS011;65693;49.798;10.968;2023-02-21T07:38:38;5.75;;;2.65;;
49972;SDS011;65693;49.798;10.968;2023-02-21T07:41:04;4.32;;;2.75;;
49972;SDS011;65693;49.798;10.968;2023-02-21T07:43:30;4.63;;;2.53;;
49972;SDS011;65693;49.798;10.968;2023-02-21T07:45:57;3.65;;;2.55;;
49972;SDS011;65693;49.798;10.968;2023-02-21T07:48:24;3.95;;;2.60;;
49972;SDS011;65693;49.798;10.968;2023-02-21T07:50:50;4.40;;;2.67;;
49972;SDS011;65693;49.798;10.968;2023-02-21T07:53:17;4.78;;;3.00;;
49972;SDS011;65693;49.798;10.968;2023-02-21T07:55:45;5.32;;;2.92;;
49972;SDS011;65693;49.798;10.968;2023-02-21T07:58:11;4.93;;;2.85;;
49972;SDS011;65693;49.798;10.968;2023-02-21T08:00:38;5.25;;;3.00;;
49972;SDS011;65693;49.798;10.968;2023-02-21T08:03:04;4.65;;;2.90;;
49972;SDS011;65693;49.798;10.968;2023-02-21T08:05:30;4.53;;;2.70;;
49972;SDS011;65693;49.798;10.968;2023-02-21T08:07:57;6.30;;;2.88;;
49972;SDS011;65693;49.798;10.968;2023-02-21T08:10:24;4.75;;;2.92;;
49972;SDS011;65693;49.798;10.968;2023-02-21T08:12:53;4.78;;;3.10;;
49972;SDS011;65693;49.798;10.968;2023-02-21T08:15:20;4.70;;;2.90;;
49972;SDS011;65693;49.798;10.968;2023-02-21T08:17:47;4.82;;;2.85;;
49972;SDS011;65693;49.798;10.968;2023-02-21T08:20:14;4.25;;;2.40;;
49972;SDS011;65693;49.798;10.968;2023-02-21T08:22:41;5.20;;;3.05;;
49972;SDS011;65693;49.798;10.968;2023-02-21T08:25:08;5.43;;;3.00;;
49972;SDS011;65693;49.798;10.968;2023-02-21T08:27:37;4.88;;;3.05;;
49972;SDS011;65693;49.798;10.968;2023-02-21T08:30:05;6.10;;;2.65;;
49972;SDS011;65693;49.798;10.968;2023-02-21T08:32:33;4.63;;;2.78;;
49972;SDS011;65693;49.798;10.968;2023-02-21T08:35:00;5.25;;;2.88;;
49972;SDS011;65693;49.798;10.968;2023-02-21T08:37:27;4.65;;;2.65;;
49972;SDS011;65693;49.798;10.968;2023-02-21T08:39:57;4.28;;;2.58;;
49972;SDS011;65693;49.798;10.968;2023-02-21T08:42:23;5.32;;;2.95;;
49972;SDS011;65693;49.798;10.968;2023-02-21T08:44:50;4.30;;;2.78;;
49972;SDS011;65693;49.798;10.968;2023-02-21T08:47:18;5.22;;;2.97;;
49972;SDS011;65693;49.798;10.968;2023-02-21T08:49:45;4.43;;;2.78;;
49972;SDS011;65693;49.798;10.968;2023-02-21T08:52:12;4.38;;;2.60;;
49972;SDS011;65693;49.798;10.968;2023-02-21T08:54:40;5.32;;;2.67;;
49972;SDS011;65693;49.798;10.968;2023-02-21T08:57:07;4.53;;;2.63;;
49972;SDS011;65693;49.798;10.968;2023-02-21T08:59:34;5.13;;;2.60;;
49972;SDS011;65693;49.798;10.968;2023-02-21T09:02:01;4.45;;;2.50;;
49972;SDS011;65693;49.798;10.968;2023-02-21T09:04:29;4.03;;;2.60;;
49972;SDS011;65693;49.798;10.968;2023-02-21T09:06:56;6.15;;;3.05;;
49972;SDS011;65693;49.798;10.968;2023-02-21T09:09:22;3.85;;;2.65;;
49972;SDS011;65693;49.798;10.968;2023-02-21T09:11:49;4.30;;;2.90;;
49972;SDS011;65693;49.798;10.968;2023-02-21T09:14:15;4.47;;;2.70;;
49972;SDS011;65693;49.798;10.968;2023-02-21T09:16:42;4.75;;;2.90;;
49972;SDS011;65693;49.798;10.968;2023-02-21T09:19:09;5.18;;;3.28;;
49972;SDS011;65693;49.798;10.968;2023-02-21T09:21:43;3.65;;;2.40;;
49972;SDS011;65693;49.798;10.968;2023-02-21T09:24:11;6.28;;;2.90;;
49972;SDS011;65693;49.798;10.968;2023-02-21T09:26:37;4.28;;;2.78;;
49972;SDS011;65693;49.798;10.968;2023-02-21T09:29:03;3.97;;;2.58;;
49972;SDS011;65693;49.798;10.968;2023-02-21T09:31:30;4.07;;;2.58;;
49972;SDS011;65693;49.798;10.968;2023-02-21T09:33:56;4.05;;;2.63;;
49972;SDS011;65693;49.798;10.968;2023-02-21T09:36:23;4.72;;;2.58;;
49972;SDS011;65693;49.798;10.968;2023-02-21T09:38:52;5.80;;;2.60;;
49972;SDS011;65693;49.798;10.968;2023-02-21T09:41:18;4.50;;;2.42;;
49972;SDS011;65693;49.798;10.968;2023-02-21T09:43:46;4.75;;;2.53;;
49972;SDS011;65693;49.798;10.968;2023-02-21T09:46:15;5.05;;;2.53;;
49972;SDS011;65693;49.798;10.968;2023-02-21T09:48:46;3.55;;;2.15;;
49972;SDS011;65693;49.798;10.968;2023-02-21T09:51:13;3.88;;;2.70;;
49972;SDS011;65693;49.798;10.968;2023-02-21T09:53:41;3.85;;;2.63;;
49972;SDS011;65693;49.798;10.968;2023-02-21T09:56:13;4.88;;;2.50;;
49972;SDS011;65693;49.798;10.968;2023-02-21T09:58:46;5.68;;;2.88;;
49972;SDS011;65693;49.798;10.968;2023-02-21T10:01:18;3.80;;;2.40;;
49972;SDS011;65693;49.798;10.968;2023-02-21T10:03:51;3.97;;;2.45;;
49972;SDS011;65693;49.798;10.968;2023-02-21T10:06:25;4.63;;;2.58;;
49972;SDS011;65693;49.798;10.968;2023-02-21T10:09:02;4.15;;;2.65;;
49972;SDS011;65693;49.798;10.968;2023-02-21T10:11:39;4.35;;;2.60;;
49972;SDS011;65693;49.798;10.968;2023-02-21T10:14:16;4.20;;;2.65;;
49972;SDS011;65693;49.798;10.968;2023-02-21T10:16:50;4.18;;;2.45;;
49972;SDS011;65693;49.798;10.968;2023-02-21T10:19:22;3.70;;;2.40;;
49972;SDS011;65693;49.798;10.968;2023-02-21T10:21:55;4.00;;;2.20;;
49972;SDS011;65693;49.798;10.968;2023-02-21T10:24:24;3.25;;;2.28;;
49972;SDS011;65693;49.798;10.968;2023-02-21T10:26:56;4.65;;;2.33;;
49972;SDS011;65693;49.798;10.968;2023-02-21T10:29:29;4.40;;;2.80;;
49972;SDS011;65693;49.798;10.968;2023-02-21T10:32:04;3.88;;;2.50;;
49972;SDS011;65693;49.798;10.968;2023-02-21T10:34:31;4.63;;;2.58;;
49972;SDS011;65693;49.798;10.968;2023-02-21T10:37:01;4.50;;;2.65;;
49972;SDS011;65693;49.798;10.968;2023-02-21T10:39:33;5.05;;;2.78;;
49972;SDS011;65693;49.798;10.968;2023-02-21T10:42:06;4.53;;;2.70;;
49972;SDS011;65693;49.798;10.968;2023-02-21T10:44:37;4.80;;;2.58;;
49972;SDS011;65693;49.798;10.968;2023-02-21T10:47:07;3.92;;;2.60;;
49972;SDS011;65693;49.798;10.968;2023-02-21T10:49:43;4.50;;;2.78;;
49972;SDS011;65693;49.798;10.968;2023-02-21T10:52:13;4.75;;;2.72;;
49972;SDS011;65693;49.798;10.968;2023-02-21T10:54:43;2.97;;;2.03;;
49972;SDS011;65693;49.798;10.968;2023-02-21T10:57:27;3.72;;;2.42;;
49972;SDS011;65693;49.798;10.968;2023-02-21T10:59:55;4.32;;;2.90;;
49972;SDS011;65693;49.798;10.968;2023-02-21T11:02:25;4.00;;;2.40;;
49972;SDS011;65693;49.798;10.968;2023-02-21T11:05:05;6.63;;;3.00;;
49972;SDS011;65693;49.798;10.968;2023-02-21T11:07:34;4.07;;;2.55;;
49972;SDS011;65693;49.798;10.968;2023-02-21T11:10:00;4.40;;;2.92;;
49972;SDS011;65693;49.798;10.968;2023-02-21T11:12:28;6.00;;;3.35;;
49972;SDS011;65693;49.798;10.968;2023-02-21T11:15:13;10.95;;;3.72;;
49972;SDS011;65693;49.798;10.968;2023-02-21T11:17:42;7.97;;;3.95;;
49972;SDS011;65693;49.798;10.968;2023-02-21T11:20:15;13.05;;;4.65;;
49972;SDS011;65693;49.798;10.968;2023-02-21T11:22:44;7.88;;;3.75;;
49972;SDS011;65693;49.798;10.968;2023-02-21T11:25:15;9.25;;;4.25;;
49972;SDS011;65693;49.798;10.968;2023-02-21T11:28:47;8.38;;;4.07;;
49972;SDS011;65693;49.798;10.968;2023-02-21T11:31:15;20.23;;;5.28;;
49972;SDS011;65693;49.798;10.968;2023-02-21T11:33:49;15.00;;;4.68;;
49972;SDS011;65693;49.798;10.968;2023-02-21T11:36:20;9.38;;;3.97;;
49972;SDS011;65693;49.798;10.968;2023-02-21T11:39:00;8.70;;;4.32;;
49972;SDS011;65693;49.798;10.968;2023-02-21T11:41:33;11.27;;;3.90;;
49972;SDS011;65693;49.798;10.968;2023-02-21T11:44:17;10.35;;;4.15;;
49972;SDS011;65693;49.798;10.968;2023-02-21T11:46:49;7.10;;;4.05;;
49972;SDS011;65693;49.798;10.968;2023-02-21T11:49:21;8.93;;;4.10;;
49972;SDS011;65693;49.798;10.968;2023-02-21T11:51:55;8.05;;;3.78;;
49972;SDS011;65693;49.798;10.968;2023-02-21T11:54:25;9.48;;;4.28;;
49972;SDS011;65693;49.798;10.968;2023-02-21T11:56:56;6.65;;;3.63;;
49972;SDS011;65693;49.798;10.968;2023-02-21T11:59:31;9.20;;;4.03;;
49972;SDS011;65693;49.798;10.968;2023-02-21T12:02:16;7.07;;;3.72;;
49972;SDS011;65693;49.798;10.968;2023-02-21T12:05:00;8.73;;;3.70;;
49972;SDS011;65693;49.798;10.968;2023-02-21T12:07:39;8.45;;;3.72;;
49972;SDS011;65693;49.798;10.968;2023-02-21T12:10:21;6.72;;;3.45;;
49972;SDS011;65693;49.798;10.968;2023-02-21T12:13:01;7.43;;;4.15;;
49972;SDS011;65693;49.798;10.968;2023-02-21T12:15:40;6.05;;;3.08;;
49972;SDS011;65693;49.798;10.968;2023-02-21T12:18:25;6.57;;;3.35;;
49972;SDS011;65693;49.798;10.968;2023-02-21T12:24:12;10.13;;;3.30;;
49972;SDS011;65693;49.798;10.968;2023-02-21T12:26:52;9.43;;;3.70;;
49972;SDS011;65693;49.798;10.968;2023-02-21T12:29:28;6.13;;;3.35;;
49972;SDS011;65693;49.798;10.968;2023-02-21T12:32:15;9.93;;;3.47;;
49972;SDS011;65693;49.798;10.968;2023-02-21T12:35:05;6.50;;;3.15;;
49972;SDS011;65693;49.798;10.968;2023-02-21T12:37:59;5.60;;;3.13;;
49972;SDS011;65693;49.798;10.968;2023-02-21T12:40:33;7.10;;;3.42;;
49972;SDS011;65693;49.798;10.968;2023-02-21T12:43:10;6.85;;;3.25;;
49972;SDS011;65693;49.798;10.968;2023-02-21T12:45:56;4.97;;;3.22;;
49972;SDS011;65693;49.798;10.968;2023-02-21T12:48:33;6.75;;;3.55;;
49972;SDS011;65693;49.798;10.968;2023-02-21T12:51:05;6.22;;;3.00;;
49972;SDS011;65693;49.798;10.968;2023-02-21T12:53:35;9.52;;;3.63;;
49972;SDS011;65693;49.798;10.968;2023-02-21T12:56:08;8.07;;;3.00;;
49972;SDS011;65693;49.798;10.968;2023-02-21T12:58:40;5.47;;;2.92;;
49972;SDS011;65693;49.798;10.968;2023-02-21T13:01:11;5.82;;;3.28;;
49972;SDS011;65693;49.798;10.968;2023-02-21T13:03:47;5.63;;;3.20;;
49972;SDS011;65693;49.798;10.968;2023-02-21T13:06:21;7.47;;;3.33;;
49972;SDS011;65693;49.798;10.968;2023-02-21T13:08:55;5.13;;;3.10;;
49972;SDS011;65693;49.798;10.968;2023-02-21T13:11:32;4.95;;;3.20;;
49972;SDS011;65693;49.798;10.968;2023-02-21T13:14:03;5.55;;;3.00;;
49972;SDS011;65693;49.798;10.968;2023-02-21T13:16:34;6.10;;;3.10;;
49972;SDS011;65693;49.798;10.968;2023-02-21T13:19:03;9.00;;;3.13;;
49972;SDS011;65693;49.798;10.968;2023-02-21T13:21:38;4.70;;;2.90;;
49972;SDS011;65693;49.798;10.968;2023-02-21T13:24:20;5.65;;;3.20;;
49972;SDS011;65693;49.798;10.968;2023-02-21T13:26:57;6.55;;;3.58;;
49972;SDS011;65693;49.798;10.968;2023-02-21T13:29:35;4.45;;;2.83;;
49972;SDS011;65693;49.798;10.968;2023-02-21T13:32:05;6.78;;;2.72;;
49972;SDS011;65693;49.798;10.968;2023-02-21T13:34:36;7.03;;;3.00;;
49972;SDS011;65693;49.798;10.968;2023-02-21T13:37:06;6.40;;;3.08;;
49972;SDS011;65693;49.798;10.968;2023-02-21T13:39:39;9.65;;;3.25;;
49972;SDS011;65693;49.798;10.968;2023-02-21T13:42:14;6.28;;;3.15;;
49972;SDS011;65693;49.798;10.968;2023-02-21T13:44:43;6.47;;;3.08;;
49972;SDS011;65693;49.798;10.968;2023-02-21T13:47:13;5.80;;;3.53;;
49972;SDS011;65693;49.798;10.968;2023-02-21T13:49:43;4.53;;;2.60;;
49972;SDS011;65693;49.798;10.968;2023-02-21T15:41:25;5.32;;;2.80;;
49972;SDS011;65693;49.798;10.968;2023-02-21T15:43:55;5.47;;;2.80;;
49972;SDS011;65693;49.798;10.968;2023-02-21T15:49:51;4.35;;;2.60;;
49972;SDS011;65693;49.798;10.968;2023-02-21T15:52:27;5.13;;;2.63;;
49972;SDS011;65693;49.798;10.968;2023-02-21T15:55:11;4.30;;;2.28;;
49972;SDS011;65693;49.798;10.968;2023-02-21T16:04:24;4.13;;;2.33;;
49972;SDS011;65693;49.798;10.968;2023-02-21T16:07:00;5.35;;;2.38;;
49972;SDS011;65693;49.798;10.968;2023-02-21T16:09:28;4.15;;;2.58;;
49972;SDS011;65693;49.798;10.968;2023-02-21T16:11:59;4.43;;;2.70;;
49972;SDS011;65693;49.798;10.968;2023-02-21T16:14:32;4.95;;;2.70;;
49972;SDS011;65693;49.798;10.968;2023-02-21T16:17:08;3.90;;;2.47;;
49972;SDS011;65693;49.798;10.968;2023-02-21T16:19:49;4.50;;;2.58;;
49972;SDS011;65693;49.798;10.968;2023-02-21T16:22:22;4.32;;;2.65;;
49972;SDS011;65693;49.798;10.968;2023-02-21T16:25:15;4.18;;;2.30;;
49972;SDS011;65693;49.798;10.968;2023-02-21T16:38:36;4.28;;;2.40;;
49972;SDS011;65693;49.798;10.968;2023-02-21T16:41:10;5.10;;;2.38;;
49972;SDS011;65693;49.798;10.968;2023-02-21T16:43:40;3.10;;;1.95;;
49972;SDS011;65693;49.798;10.968;2023-02-21T16:46:08;4.85;;;2.47;;
49972;SDS011;65693;49.798;10.968;2023-02-21T16:48:37;5.18;;;2.45;;
49972;SDS011;65693;49.798;10.968;2023-02-21T16:51:06;6.88;;;3.28;;
49972;SDS011;65693;49.798;10.968;2023-02-21T16:53:41;3.72;;;2.25;;
49972;SDS011;65693;49.798;10.968;2023-02-21T16:56:09;4.15;;;2.40;;
49972;SDS011;65693;49.798;10.968;2023-02-21T16:58:39;4.03;;;2.00;;
49972;SDS011;65693;49.798;10.968;2023-02-21T17:01:16;4.30;;;2.30;;
49972;SDS011;65693;49.798;10.968;2023-02-21T17:03:52;5.38;;;2.30;;
49972;SDS011;65693;49.798;10.968;2023-02-21T17:06:22;3.97;;;2.25;;
49972;SDS011;65693;49.798;10.968;2023-02-21T17:09:00;3.63;;;2.15;;
49972;SDS011;65693;49.798;10.968;2023-02-21T17:11:32;4.28;;;2.58;;
49972;SDS011;65693;49.798;10.968;2023-02-21T17:14:01;4.35;;;2.28;;
49972;SDS011;65693;49.798;10.968;2023-02-21T17:16:28;6.20;;;2.75;;
49972;SDS011;65693;49.798;10.968;2023-02-21T17:18:54;5.65;;;2.45;;
49972;SDS011;65693;49.798;10.968;2023-02-21T17:21:22;4.90;;;2.38;;